MWZ weather

Mwanza Airport
Mwanza, Mwanza Region, Tanzania

Public forecast

Using degrees Celsius for public forecast. Weather courtesy of forecast.io.

Current aviation weather report (METAR) for Mwanza Airport

Retrieved 2019/10/23 22:00 UTC (41 minutes ago):

HTMW 232200Z 14005KT 9999 FEW019 FEW020CB BKN090 21/19 Q1015 NOSIG

Aviation forecast (TAF) for Mwanza Airport

Forecast is more than 12 hours old.

Retrieved 2019-10-17 00:51 UTC (7 days ago):

TAF HTMW 162300Z 1700/1724 32010KT 9999 FEW020 FEW021CB BKN090 TEMPO 1703/1707 12015KT TS/TSRA BKN022 FEW023CB BECMG 1714/1716 NSW 33010KT FEW024 FEW025CB